Time;durP1;ratioP1;P1;durP2;ratioP2;P2;SDS_P1;SDS_P2;PMS_P1;PMS_P2;Temp;Humidity;BMP_temperature;BMP_pressure;BME280_temperature;BME280_humidity;BME280_pressure;Samples;Min_cycle;Max_cycle;Signal;HPM_P1;HPM_P2
2023/08/21 00:00:30;;;;;;;3.55;1.60;;;;;;;-148.88;100.00;-17125.47;4993834;28;20120;-85
2023/08/21 00:02:55;;;;;;;5.30;1.73;;;;;;;-148.88;100.00;-17125.47;4993679;28;20512;-85
2023/08/21 00:05:20;;;;;;;5.93;1.70;;;;;;;-148.88;100.00;-17125.47;4993710;28;20053;-86
2023/08/21 00:07:46;;;;;;;3.38;1.60;;;;;;;-148.88;100.00;-17125.47;4993769;28;20029;-85
2023/08/21 00:10:13;;;;;;;4.72;1.83;;;;;;;-148.88;100.00;-17125.47;4993398;28;20022;-86
2023/08/21 00:12:39;;;;;;;4.32;1.77;;;;;;;-148.88;100.00;-17125.47;4993687;28;20508;-85
2023/08/21 00:15:05;;;;;;;3.85;2.10;;;;;;;-148.88;100.00;-17125.47;4994734;28;20026;-86
2023/08/21 00:17:30;;;;;;;4.38;2.30;;;;;;;-148.88;100.00;-17125.47;4994908;28;20433;-85
2023/08/21 00:19:56;;;;;;;5.10;2.42;;;;;;;-148.88;100.00;-17125.47;4994612;28;20486;-86
2023/08/21 00:22:22;;;;;;;7.53;2.67;;;;;;;-148.88;100.00;-17125.47;4993849;28;20149;-85
2023/08/21 00:24:47;;;;;;;6.53;3.10;;;;;;;-148.88;100.00;-17125.47;4998190;28;20042;-85
2023/08/21 00:27:12;;;;;;;6.93;3.20;;;;;;;-148.88;100.00;-17125.47;4994891;28;20049;-85
2023/08/21 00:29:38;;;;;;;5.82;3.35;;;;;;;-148.88;100.00;-17125.47;4994437;28;20061;-85
2023/08/21 00:32:03;;;;;;;11.00;3.85;;;;;;;-148.88;100.00;-17125.47;4993766;28;20026;-86
2023/08/21 00:34:29;;;;;;;4.60;2.75;;;;;;;-148.88;100.00;-17125.47;4994653;28;20037;-86
2023/08/21 00:36:54;;;;;;;5.05;2.90;;;;;;;-148.88;100.00;-17125.47;4995847;28;20537;-86
2023/08/21 00:39:20;;;;;;;5.35;3.00;;;;;;;-148.88;100.00;-17125.47;4993064;28;20072;-86
2023/08/21 00:41:45;;;;;;;5.57;2.80;;;;;;;-148.88;100.00;-17125.47;4993119;28;20022;-85
2023/08/21 00:44:10;;;;;;;4.82;3.05;;;;;;;-148.88;100.00;-17125.47;4993063;28;20026;-86
2023/08/21 00:46:36;;;;;;;5.10;2.90;;;;;;;-148.88;100.00;-17125.47;4994544;28;20370;-85
2023/08/21 00:49:02;;;;;;;6.97;3.10;;;;;;;-148.88;100.00;-17125.47;4993077;28;20046;-85
2023/08/21 00:51:28;;;;;;;5.95;2.20;;;;;;;-148.88;100.00;-17125.47;4993253;28;20053;-86
2023/08/21 00:53:53;;;;;;;5.47;2.47;;;;;;;-148.88;100.00;-17125.47;4993387;28;20023;-85
2023/08/21 00:56:19;;;;;;;6.90;2.28;;;;;;;-148.88;100.00;-17125.47;4993383;28;20481;-85
2023/08/21 00:58:47;;;;;;;4.15;1.75;;;;;;;-148.88;100.00;-17125.47;4992840;28;20026;-84
2023/08/21 01:01:16;;;;;;;8.85;2.30;;;;;;;-148.88;100.00;-17125.47;4994015;28;20076;-85
2023/08/21 01:03:42;;;;;;;7.38;2.45;;;;;;;-148.88;100.00;-17125.47;4993162;28;20034;-86
2023/08/21 01:06:08;;;;;;;3.92;2.00;;;;;;;-148.88;100.00;-17125.47;4992730;28;20034;-85
2023/08/21 01:08:47;;;;;;;5.32;3.00;;;;;;;-148.88;100.00;-17125.47;4992751;28;20022;-84
2023/08/21 01:11:31;;;;;;;6.22;2.63;;;;;;;-148.88;100.00;-17125.47;4996013;23;20047;-88
2023/08/21 01:14:00;;;;;;;7.15;3.10;;;;;;;-148.88;100.00;-17125.47;4955783;28;20030;-88
2023/08/21 01:16:27;;;;;;;7.60;3.40;;;;;;;-148.88;100.00;-17125.47;4955764;28;20103;-88
2023/08/21 01:18:54;;;;;;;6.03;2.97;;;;;;;-148.88;100.00;-17125.47;4955119;28;20390;-87
2023/08/21 01:21:20;;;;;;;6.72;3.30;;;;;;;-148.88;100.00;-17125.47;4954165;28;20087;-88
2023/08/21 01:23:45;;;;;;;6.50;3.60;;;;;;;-148.88;100.00;-17125.47;4954328;28;20063;-89
2023/08/21 01:26:11;;;;;;;7.03;3.90;;;;;;;-148.88;100.00;-17125.47;4954475;28;20114;-88
2023/08/21 01:28:37;;;;;;;5.32;3.22;;;;;;;-148.88;100.00;-17125.47;4954494;28;20039;-88
2023/08/21 01:31:17;;;;;;;5.88;2.83;;;;;;;-148.88;100.00;-17125.47;4954958;28;20397;-87
2023/08/21 01:33:56;;;;;;;6.65;3.35;;;;;;;-148.88;100.00;-17125.47;4955666;29;20097;-88
2023/08/21 01:36:23;;;;;;;6.88;3.30;;;;;;;-148.88;100.00;-17125.47;4954584;29;20054;-88
2023/08/21 01:38:57;;;;;;;3.53;2.83;;;;;;;-148.88;100.00;-17125.47;4954865;28;20023;-87
2023/08/21 01:41:24;;;;;;;6.30;3.05;;;;;;;-148.88;100.00;-17125.47;4954183;28;20035;-88
2023/08/21 01:43:50;;;;;;;7.50;3.38;;;;;;;-148.88;100.00;-17125.47;4955235;29;20111;-88
2023/08/21 01:46:15;;;;;;;6.68;3.50;;;;;;;-148.88;100.00;-17125.47;4955679;28;20051;-87
2023/08/21 01:48:41;;;;;;;4.10;2.65;;;;;;;-148.88;100.00;-17125.47;4954429;28;20027;-88
2023/08/21 01:51:06;;;;;;;7.25;2.55;;;;;;;-148.88;100.00;-17125.47;4954054;28;20134;-88
2023/08/21 01:53:32;;;;;;;4.72;2.67;;;;;;;-148.88;100.00;-17125.47;4954098;28;20051;-87
2023/08/21 01:55:57;;;;;;;6.68;2.55;;;;;;;-148.88;100.00;-17125.47;4953887;28;20071;-87
2023/08/21 01:58:22;;;;;;;5.13;2.38;;;;;;;-148.88;100.00;-17125.47;4954730;28;20038;-88
2023/08/21 02:00:48;;;;;;;6.63;2.30;;;;;;;-148.88;100.00;-17125.47;4955373;28;20086;-87
2023/08/21 02:03:14;;;;;;;5.72;2.33;;;;;;;-148.88;100.00;-17125.47;4954138;28;20027;-87
2023/08/21 02:05:40;;;;;;;8.23;2.42;;;;;;;-148.88;100.00;-17125.47;4955278;28;20031;-88
2023/08/21 02:08:07;;;;;;;4.97;2.00;;;;;;;-148.88;100.00;-17125.47;4954186;28;20402;-88
2023/08/21 02:10:32;;;;;;;4.20;2.00;;;;;;;-148.88;100.00;-17125.47;4953763;28;20114;-87
2023/08/21 02:12:58;;;;;;;8.25;2.45;;;;;;;-148.88;100.00;-17125.47;4953753;29;20439;-87
2023/08/21 02:15:23;;;;;;;4.90;2.28;;;;;;;-148.88;100.00;-17125.47;4954582;28;20035;-88
2023/08/21 02:17:48;;;;;;;4.35;2.17;;;;;;;-148.88;100.00;-17125.47;4953637;28;20114;-86
2023/08/21 02:20:14;;;;;;;5.35;2.42;;;;;;;-148.88;100.00;-17125.47;4963705;23;21074;-77
2023/08/21 02:22:39;;;;;;;4.95;2.50;;;;;;;-148.88;100.00;-17125.47;4973787;28;20049;-77
2023/08/21 02:25:05;;;;;;;5.53;2.28;;;;;;;-148.88;100.00;-17125.47;4973751;28;20051;-77
2023/08/21 02:27:30;;;;;;;9.20;3.22;;;;;;;-148.88;100.00;-17125.47;4976968;28;20023;-77
2023/08/21 02:29:55;;;;;;;4.30;2.63;;;;;;;-148.88;100.00;-17125.47;4977048;28;20019;-77
2023/08/21 02:32:21;;;;;;;6.15;2.63;;;;;;;-148.88;100.00;-17125.47;4977363;28;20034;-77
2023/08/21 02:34:46;;;;;;;6.30;2.60;;;;;;;-148.88;100.00;-17125.47;4977435;28;20033;-77
2023/08/21 02:37:12;;;;;;;6.00;2.65;;;;;;;-148.88;100.00;-17125.47;4976855;28;20098;-77
2023/08/21 02:39:37;;;;;;;5.03;2.85;;;;;;;-148.88;100.00;-17125.47;4977110;28;20117;-77
2023/08/21 02:42:03;;;;;;;4.82;3.28;;;;;;;-148.88;100.00;-17125.47;4976855;28;20394;-77
2023/08/21 02:44:28;;;;;;;6.90;3.05;;;;;;;-148.88;100.00;-17125.47;4976734;28;20019;-77
2023/08/21 02:46:53;;;;;;;5.70;2.50;;;;;;;-148.88;100.00;-17125.47;4975357;28;20035;-77
2023/08/21 02:49:19;;;;;;;5.57;2.70;;;;;;;-148.88;100.00;-17125.47;4976910;28;20513;-77
2023/08/21 02:51:44;;;;;;;6.95;3.17;;;;;;;-148.88;100.00;-17125.47;4975424;28;20050;-77
2023/08/21 02:54:10;;;;;;;6.43;3.30;;;;;;;-148.88;100.00;-17125.47;4976693;28;20078;-77
2023/08/21 02:56:35;;;;;;;7.70;3.47;;;;;;;-148.88;100.00;-17125.47;4975348;28;20097;-77
2023/08/21 02:59:01;;;;;;;6.13;3.50;;;;;;;-148.88;100.00;-17125.47;4975132;28;20481;-77
2023/08/21 03:01:26;;;;;;;5.90;3.60;;;;;;;-148.88;100.00;-17125.47;4976743;28;20072;-77
2023/08/21 03:03:52;;;;;;;9.63;4.03;;;;;;;-148.88;100.00;-17125.47;4976380;28;20053;-77
2023/08/21 03:06:17;;;;;;;7.20;3.60;;;;;;;-148.88;100.00;-17125.47;4976436;28;20023;-77
2023/08/21 03:08:43;;;;;;;8.35;3.63;;;;;;;-148.88;100.00;-17125.47;4976307;28;20022;-77
2023/08/21 03:11:09;;;;;;;7.88;3.22;;;;;;;-148.88;100.00;-17125.47;4976683;28;20474;-77
2023/08/21 03:13:35;;;;;;;7.05;3.50;;;;;;;-148.88;100.00;-17125.47;4974944;28;20026;-77
2023/08/21 03:16:00;;;;;;;6.90;3.80;;;;;;;-148.88;100.00;-17125.47;4976280;28;20097;-77
2023/08/21 03:18:31;;;;;;;8.68;3.45;;;;;;;-148.88;100.00;-17125.47;4976170;28;20038;-77
2023/08/21 03:20:56;;;;;;;5.70;3.35;;;;;;;-148.88;100.00;-17125.47;4974708;28;20493;-77
2023/08/21 03:23:22;;;;;;;7.35;3.30;;;;;;;-148.88;100.00;-17125.47;4976151;28;20038;-76
2023/08/21 03:25:47;;;;;;;6.35;2.70;;;;;;;-148.88;100.00;-17125.47;4976040;28;20045;-77
2023/08/21 03:28:12;;;;;;;7.32;3.10;;;;;;;-148.88;100.00;-17125.47;4974625;28;20117;-77
2023/08/21 03:30:41;;;;;;;5.80;2.80;;;;;;;-148.88;100.00;-17125.47;4975871;28;20134;-77
2023/08/21 03:33:08;;;;;;;5.00;2.95;;;;;;;-148.88;100.00;-17125.47;4975884;28;20493;-77
2023/08/21 03:35:33;;;;;;;7.90;3.08;;;;;;;-148.88;100.00;-17125.47;4976007;28;20030;-77
2023/08/21 03:37:58;;;;;;;6.40;2.95;;;;;;;-148.88;100.00;-17125.47;4975812;28;20031;-77
2023/08/21 03:40:24;;;;;;;7.32;3.22;;;;;;;-148.88;100.00;-17125.47;4975857;28;20026;-77
2023/08/21 03:42:49;;;;;;;6.90;3.15;;;;;;;-148.88;100.00;-17125.47;4975763;28;20560;-77
2023/08/21 03:45:14;;;;;;;5.82;2.88;;;;;;;-148.88;100.00;-17125.47;4975675;28;20026;-76
2023/08/21 03:47:39;;;;;;;7.40;2.58;;;;;;;-148.88;100.00;-17125.47;4974526;28;20497;-77
2023/08/21 03:50:05;;;;;;;7.75;3.33;;;;;;;-148.88;100.00;-17125.47;4975621;28;20032;-77
2023/08/21 03:52:31;;;;;;;8.80;3.65;;;;;;;-148.88;100.00;-17125.47;4975539;28;20022;-77
2023/08/21 03:54:56;;;;;;;9.02;3.92;;;;;;;-148.88;100.00;-17125.47;4974257;28;20034;-76
2023/08/21 03:57:21;;;;;;;10.90;3.17;;;;;;;-148.88;100.00;-17125.47;4975648;28;20022;-77
2023/08/21 03:59:47;;;;;;;5.68;3.10;;;;;;;-148.88;100.00;-17125.47;4975447;28;20069;-77
2023/08/21 04:02:12;;;;;;;7.80;3.17;;;;;;;-148.88;100.00;-17125.47;4975332;28;20031;-77
2023/08/21 04:04:37;;;;;;;8.65;3.58;;;;;;;-148.88;100.00;-17125.47;4975289;28;20509;-77
2023/08/21 04:07:03;;;;;;;9.85;3.15;;;;;;;-148.88;100.00;-17125.47;4975293;28;20081;-77
2023/08/21 04:09:28;;;;;;;5.53;3.17;;;;;;;-148.88;100.00;-17125.47;4975217;28;20094;-77
2023/08/21 04:11:53;;;;;;;5.40;2.95;;;;;;;-148.88;100.00;-17125.47;4975180;28;20389;-77
2023/08/21 04:14:19;;;;;;;6.93;3.08;;;;;;;-148.88;100.00;-17125.47;4975106;28;20093;-77
2023/08/21 04:16:44;;;;;;;5.53;2.95;;;;;;;-148.88;100.00;-17125.47;4973590;28;20023;-77
2023/08/21 04:19:09;;;;;;;6.35;2.97;;;;;;;-148.88;100.00;-17125.47;4975240;28;20089;-77
2023/08/21 04:21:35;;;;;;;5.70;2.70;;;;;;;-148.88;100.00;-17125.47;4974990;28;20042;-77
2023/08/21 04:24:00;;;;;;;6.15;3.05;;;;;;;-148.88;100.00;-17125.47;4975344;28;20025;-76
2023/08/21 04:26:25;;;;;;;6.90;2.90;;;;;;;-148.88;100.00;-17125.47;4975120;28;20422;-77
2023/08/21 04:28:51;;;;;;;6.88;3.17;;;;;;;-148.88;100.00;-17125.47;4973650;28;20026;-77
2023/08/21 04:31:16;;;;;;;7.00;3.20;;;;;;;-148.88;100.00;-17125.47;4974804;28;20097;-76
2023/08/21 04:33:41;;;;;;;6.10;3.15;;;;;;;-148.88;100.00;-17125.47;4976120;28;20041;-85
2023/08/21 04:36:07;;;;;;;7.18;3.55;;;;;;;-148.88;100.00;-17125.47;4975440;28;20022;-77
2023/08/21 04:38:32;;;;;;;8.23;3.25;;;;;;;-148.88;100.00;-17125.47;4974611;28;20031;-76
2023/08/21 04:41:06;;;;;;;9.48;3.55;;;;;;;-148.88;100.00;-17125.47;4974689;28;20114;-77
2023/08/21 04:43:32;;;;;;;6.45;3.42;;;;;;;-148.88;100.00;-17125.47;4973400;28;20030;-77
2023/08/21 04:45:57;;;;;;;6.03;3.20;;;;;;;-148.88;100.00;-17125.47;4973317;28;20018;-77
2023/08/21 04:48:22;;;;;;;9.68;4.07;;;;;;;-148.88;100.00;-17125.47;4973924;28;20023;-77
2023/08/21 04:50:47;;;;;;;7.80;3.30;;;;;;;-148.88;100.00;-17125.47;4974970;28;20025;-76
2023/08/21 04:53:13;;;;;;;10.20;3.70;;;;;;;-148.88;100.00;-17125.47;4974537;28;20019;-76
2023/08/21 04:55:40;;;;;;;4.82;2.88;;;;;;;-148.88;100.00;-17125.47;4974677;28;20057;-76
2023/08/21 04:58:09;;;;;;;7.65;3.35;;;;;;;-148.88;100.00;-17125.47;4973101;28;20121;-76
2023/08/21 05:00:35;;;;;;;9.23;3.63;;;;;;;-148.88;100.00;-17125.47;4973257;28;20030;-76
2023/08/21 05:03:01;;;;;;;6.55;3.65;;;;;;;-148.88;100.00;-17125.47;4973228;28;20509;-76
2023/08/21 05:05:26;;;;;;;6.55;3.25;;;;;;;-148.88;100.00;-17125.47;4974112;28;20485;-77
2023/08/21 05:07:53;;;;;;;5.78;3.83;;;;;;;-148.88;100.00;-17125.47;4974144;28;20058;-77
2023/08/21 05:10:18;;;;;;;10.70;3.70;;;;;;;-148.88;100.00;-17125.47;4974237;28;20030;-77
2023/08/21 05:12:44;;;;;;;6.90;3.90;;;;;;;-148.88;100.00;-17125.47;4974093;28;20030;-76
2023/08/21 05:15:10;;;;;;;7.13;3.50;;;;;;;-148.88;100.00;-17125.47;4974047;28;20030;-76
2023/08/21 05:17:35;;;;;;;6.70;3.70;;;;;;;-148.88;100.00;-17125.47;4973948;28;20120;-77
2023/08/21 05:20:01;;;;;;;5.88;3.20;;;;;;;-148.88;100.00;-17125.47;4974451;28;20093;-76
2023/08/21 05:22:26;;;;;;;6.70;3.63;;;;;;;-148.88;100.00;-17125.47;4974136;28;20066;-76
2023/08/21 05:24:51;;;;;;;7.10;3.70;;;;;;;-148.88;100.00;-17125.47;4974088;28;20031;-76
2023/08/21 05:27:17;;;;;;;5.85;3.60;;;;;;;-148.88;100.00;-17125.47;4972651;28;20015;-77
2023/08/21 05:29:42;;;;;;;6.63;3.33;;;;;;;-148.88;100.00;-17125.47;4974071;28;20081;-76
2023/08/21 05:32:07;;;;;;;7.70;3.50;;;;;;;-148.88;100.00;-17125.47;4973978;28;20593;-77
2023/08/21 05:34:33;;;;;;;7.25;3.75;;;;;;;-148.88;100.00;-17125.47;4974108;28;20109;-76
2023/08/21 05:36:58;;;;;;;8.32;4.25;;;;;;;-148.88;100.00;-17125.47;4973863;28;20105;-77
2023/08/21 05:39:23;;;;;;;10.85;3.55;;;;;;;-148.88;100.00;-17125.47;4974419;28;20030;-76
2023/08/21 05:41:49;;;;;;;10.55;4.05;;;;;;;-148.88;100.00;-17125.47;4972827;28;20019;-76
2023/08/21 05:44:14;;;;;;;8.10;4.20;;;;;;;-148.88;100.00;-17125.47;4974216;28;20058;-76
2023/08/21 05:46:42;;;;;;;7.53;3.33;;;;;;;-148.88;100.00;-17125.47;4973973;28;20532;-77
2023/08/21 05:49:07;;;;;;;6.28;3.47;;;;;;;-148.88;100.00;-17125.47;4973698;28;20114;-75
2023/08/21 05:51:33;;;;;;;5.13;3.40;;;;;;;-148.88;100.00;-17125.47;4973919;28;20065;-76
2023/08/21 05:53:59;;;;;;;6.25;3.50;;;;;;;-148.88;100.00;-17125.47;4973854;28;20054;-77
2023/08/21 05:56:24;;;;;;;6.57;3.60;;;;;;;-148.88;100.00;-17125.47;4972708;28;20371;-76
2023/08/21 05:58:49;;;;;;;6.85;3.70;;;;;;;-148.88;100.00;-17125.47;4972444;28;20482;-77
2023/08/21 06:01:15;;;;;;;8.05;3.65;;;;;;;-148.88;100.00;-17125.47;4975703;28;20034;-76
2023/08/21 06:03:40;;;;;;;6.22;3.08;;;;;;;-148.88;100.00;-17125.47;4976190;28;20038;-77
2023/08/21 06:06:05;;;;;;;7.13;3.78;;;;;;;-148.88;100.00;-17125.47;4976140;28;20057;-77
2023/08/21 06:08:31;;;;;;;7.43;3.22;;;;;;;-148.88;100.00;-17125.47;4977691;28;20027;-77
2023/08/21 06:10:57;;;;;;;9.82;3.80;;;;;;;-148.88;100.00;-17125.47;4977437;28;20454;-77
2023/08/21 06:13:22;;;;;;;10.88;3.90;;;;;;;-148.88;100.00;-17125.47;4977492;28;20026;-77
2023/08/21 06:15:47;;;;;;;8.55;3.67;;;;;;;-148.88;100.00;-17125.47;4977470;28;20054;-77
2023/08/21 06:18:14;;;;;;;10.07;3.72;;;;;;;-148.88;100.00;-17125.47;4976050;28;20066;-77
2023/08/21 06:20:42;;;;;;;9.13;3.47;;;;;;;-148.88;100.00;-17125.47;4975990;28;20034;-77
2023/08/21 06:23:08;;;;;;;8.07;3.10;;;;;;;-148.88;100.00;-17125.47;4975976;28;20026;-77
2023/08/21 06:25:33;;;;;;;7.63;3.60;;;;;;;-148.88;100.00;-17125.47;4977871;28;20157;-77
2023/08/21 06:27:58;;;;;;;7.68;3.75;;;;;;;-148.88;100.00;-17125.47;4977136;28;20074;-77
2023/08/21 06:30:24;;;;;;;7.03;3.22;;;;;;;-148.88;100.00;-17125.47;4977479;28;20390;-77
2023/08/21 06:32:49;;;;;;;9.52;3.70;;;;;;;-148.88;100.00;-17125.47;4975803;28;20070;-77
2023/08/21 06:35:17;;;;;;;7.93;3.20;;;;;;;-148.88;100.00;-17125.47;4977163;28;20038;-77
2023/08/21 06:37:43;;;;;;;8.18;3.47;;;;;;;-148.88;100.00;-17125.47;4975616;28;20089;-77
2023/08/21 06:40:09;;;;;;;9.93;3.50;;;;;;;-148.88;100.00;-17125.47;4976973;28;20450;-78
2023/08/21 06:42:34;;;;;;;4.75;2.90;;;;;;;-148.88;100.00;-17125.47;4976877;28;20023;-77
2023/08/21 06:45:00;;;;;;;5.63;3.13;;;;;;;-148.88;100.00;-17125.47;4976908;28;20078;-77
2023/08/21 06:47:25;;;;;;;8.65;2.95;;;;;;;-148.88;100.00;-17125.47;4975714;28;20077;-78
2023/08/21 06:49:50;;;;;;;9.20;2.92;;;;;;;-148.88;100.00;-17125.47;4975848;28;20033;-77
2023/08/21 06:52:18;;;;;;;6.45;2.90;;;;;;;-148.88;100.00;-17125.47;4976994;28;20085;-77
2023/08/21 06:54:43;;;;;;;6.78;2.83;;;;;;;-148.88;100.00;-17125.47;4976883;28;20030;-77
2023/08/21 06:57:09;;;;;;;6.55;3.00;;;;;;;-148.88;100.00;-17125.47;4976560;28;20019;-77
2023/08/21 06:59:35;;;;;;;7.90;3.47;;;;;;;-148.88;100.00;-17125.47;4976844;28;20035;-77
2023/08/21 07:02:02;;;;;;;8.57;2.78;;;;;;;-148.88;100.00;-17125.47;4976763;28;20030;-77
2023/08/21 07:04:28;;;;;;;5.75;3.03;;;;;;;-148.88;100.00;-17125.47;4976630;28;20023;-77
2023/08/21 07:06:53;;;;;;;7.03;3.40;;;;;;;-148.88;100.00;-17125.47;4976482;28;20445;-78
2023/08/21 07:09:18;;;;;;;7.43;3.20;;;;;;;-148.88;100.00;-17125.47;4976745;28;20027;-77
2023/08/21 07:11:44;;;;;;;13.75;3.40;;;;;;;-148.88;100.00;-17125.47;4975821;28;20061;-78
2023/08/21 07:14:09;;;;;;;6.93;3.50;;;;;;;-148.88;100.00;-17125.47;4976325;28;20026;-77
2023/08/21 07:16:34;;;;;;;7.90;3.92;;;;;;;-148.88;100.00;-17125.47;4976267;28;20038;-77
2023/08/21 07:19:00;;;;;;;8.07;3.80;;;;;;;-148.88;100.00;-17125.47;4974873;28;20449;-77
2023/08/21 07:21:25;;;;;;;7.28;3.45;;;;;;;-148.88;100.00;-17125.47;4976247;28;20512;-77
2023/08/21 07:23:50;;;;;;;9.00;3.80;;;;;;;-148.88;100.00;-17125.47;4974961;28;20038;-77
2023/08/21 07:26:16;;;;;;;8.25;4.00;;;;;;;-148.88;100.00;-17125.47;4974944;28;20030;-78
2023/08/21 07:28:41;;;;;;;7.53;2.40;;;;;;;-148.88;99.44;-17125.47;4976440;28;20061;-77
2023/08/21 07:31:06;;;;;;;6.55;2.25;;;;;;;-148.88;96.84;-17125.47;4976130;28;20027;-77
2023/08/21 07:33:32;;;;;;;5.85;2.25;;;;;;;-148.88;98.67;-17125.47;4976015;28;20096;-77
2023/08/21 07:36:02;;;;;;;5.13;1.90;;;;;;;-148.88;100.00;-17125.47;4975906;28;20444;-77
2023/08/21 07:38:27;;;;;;;6.10;1.90;;;;;;;-148.88;100.00;-17125.47;4974555;28;20062;-77
2023/08/21 07:41:07;;;;;;;4.15;1.67;;;;;;;-148.88;100.00;-17125.47;4976513;28;20054;-77
2023/08/21 07:43:33;;;;;;;5.55;1.90;;;;;;;-148.88;100.00;-17125.47;4975885;28;20109;-77
2023/08/21 07:46:02;;;;;;;5.28;1.83;;;;;;;-148.88;100.00;-17125.47;4976296;28;20069;-85
2023/08/21 07:48:28;;;;;;;5.70;2.22;;;;;;;-148.88;100.00;-17125.47;4975942;28;20029;-79
2023/08/21 07:50:53;;;;;;;7.40;2.03;;;;;;;-148.88;99.85;-17125.47;4974552;28;20031;-78
2023/08/21 07:53:19;;;;;;;7.45;2.22;;;;;;;-148.88;100.00;-17125.47;4974457;28;20057;-77
2023/08/21 07:55:45;;;;;;;5.70;1.95;;;;;;;-148.88;99.96;-17125.47;4976622;28;20031;-77
2023/08/21 07:58:11;;;;;;;5.45;2.00;;;;;;;-148.88;100.00;-17125.47;4974286;28;20033;-77
2023/08/21 08:00:36;;;;;;;7.93;2.45;;;;;;;-148.88;100.00;-17125.47;4974268;28;20031;-77
2023/08/21 08:03:02;;;;;;;6.07;2.28;;;;;;;-148.88;100.00;-17125.47;4976101;28;20022;-77
2023/08/21 08:05:27;;;;;;;6.80;2.20;;;;;;;-148.88;100.00;-17125.47;4974287;28;20027;-77
2023/08/21 08:07:52;;;;;;;8.55;2.40;;;;;;;-148.88;98.96;-17125.47;4975628;28;20440;-78
2023/08/21 08:10:18;;;;;;;7.78;2.28;;;;;;;-148.88;100.00;-17125.47;4975550;28;20031;-77
2023/08/21 08:12:45;;;;;;;6.22;1.92;;;;;;;-148.88;100.00;-17125.47;4975615;28;20054;-77
2023/08/21 08:15:11;;;;;;;9.45;3.25;;;;;;;-148.88;100.00;-17125.47;4975841;28;20027;-77
2023/08/21 08:17:36;;;;;;;7.85;2.67;;;;;;;-148.88;99.53;-17125.47;4975041;28;20057;-77
2023/08/21 08:20:03;;;;;;;8.75;2.35;;;;;;;-148.88;100.00;-17125.47;4975000;28;20453;-77
2023/08/21 08:22:28;;;;;;;8.50;2.50;;;;;;;-148.88;99.02;-17125.47;4973627;28;20478;-77
2023/08/21 08:24:54;;;;;;;7.97;2.70;;;;;;;-148.88;99.93;-17125.47;4974886;28;20027;-77
2023/08/21 08:27:19;;;;;;;6.60;2.25;;;;;;;-148.88;98.87;-17125.47;4975518;28;20034;-78
2023/08/21 08:29:45;;;;;;;7.63;1.92;;;;;;;-148.88;96.54;-17125.47;4975526;28;20385;-77
2023/08/21 08:32:10;;;;;;;10.63;2.28;;;;;;;-148.88;97.65;-17125.47;4975235;28;20082;-77
2023/08/21 08:34:36;;;;;;;8.85;2.10;;;;;;;-148.88;97.92;-17125.47;4974916;28;20041;-78
2023/08/21 08:37:01;;;;;;;5.75;2.08;;;;;;;-148.88;95.00;-17125.47;4975075;28;20395;-78
2023/08/21 08:39:27;;;;;;;6.80;1.80;;;;;;;-148.88;93.80;-17125.47;4975095;28;20386;-77
2023/08/21 08:42:03;;;;;;;4.57;1.58;;;;;;;-148.88;93.33;-17125.47;4975418;28;20023;-77
2023/08/21 08:44:29;;;;;;;6.28;1.63;;;;;;;-148.88;90.26;-17125.47;4974850;28;20027;-78
2023/08/21 08:46:55;;;;;;;7.22;1.60;;;;;;;-148.88;87.84;-17125.47;4975239;28;20027;-77
2023/08/21 08:49:22;;;;;;;5.57;1.75;;;;;;;-148.88;88.87;-17125.47;4974680;28;20034;-77
2023/08/21 08:51:50;;;;;;;5.03;1.48;;;;;;;-148.88;86.82;-17125.47;4974649;28;20101;-77
2023/08/21 08:54:17;;;;;;;6.30;1.80;;;;;;;-148.88;84.58;-17125.47;4974697;28;20061;-77
2023/08/21 08:56:43;;;;;;;5.03;1.38;;;;;;;-148.88;85.18;-17125.47;4973232;28;20414;-77
2023/08/21 08:59:08;;;;;;;6.10;1.60;;;;;;;-148.88;82.90;-17125.47;4974481;28;20501;-77
2023/08/21 09:01:34;;;;;;;3.63;1.50;;;;;;;-148.88;84.11;-17125.47;4983444;23;20046;-89
2023/08/21 09:04:00;;;;;;;3.83;1.55;;;;;;;-148.88;81.46;-17125.47;4974981;28;20031;-89
2023/08/21 09:06:27;;;;;;;6.15;1.52;;;;;;;-148.88;84.46;-17125.47;4974740;28;20587;-90
2023/08/21 09:08:57;;;;;;;5.00;1.70;;;;;;;-148.88;85.97;-17125.47;4974348;28;20034;-90
2023/08/21 09:11:23;;;;;;;6.50;1.92;;;;;;;-148.88;83.55;-17125.47;4975378;28;20027;-90
2023/08/21 09:13:52;;;;;;;4.95;1.55;;;;;;;-148.88;85.05;-17125.47;4975011;28;20022;-89
2023/08/21 09:16:18;;;;;;;5.65;1.50;;;;;;;-148.88;83.53;-17125.47;4973744;28;20054;-92
2023/08/21 09:18:48;;;;;;;4.55;1.55;;;;;;;-148.88;83.37;-17125.47;4974548;28;20037;-89
2023/08/21 09:21:21;;;;;;;5.88;1.65;;;;;;;-148.88;83.59;-17125.47;4974183;28;20034;-90
2023/08/21 09:23:48;;;;;;;8.50;3.00;;;;;;;-148.88;81.43;-17125.47;4974027;28;20477;-90
2023/08/21 09:26:23;;;;;;;7.03;1.45;;;;;;;-148.88;78.98;-17125.47;4974926;28;20253;-90
2023/08/21 09:28:50;;;;;;;6.20;1.40;;;;;;;-148.88;79.76;-17125.47;4974073;28;20557;-90
2023/08/21 09:31:16;;;;;;;5.18;1.40;;;;;;;-148.88;78.00;-17125.47;4974119;28;20033;-91
2023/08/21 09:33:42;;;;;;;5.95;1.35;;;;;;;-148.88;74.23;-17125.47;4973474;28;20057;-90
2023/08/21 09:36:09;;;;;;;4.45;1.27;;;;;;;-148.88;73.46;-17125.47;4976739;28;20468;-90
2023/08/21 09:38:37;;;;;;;5.10;1.23;;;;;;;-148.88;73.24;-17125.47;4977490;28;20062;-89
2023/08/21 09:41:03;;;;;;;3.47;1.38;;;;;;;-148.88;73.77;-17125.47;4977766;28;20038;-88
2023/08/21 09:43:29;;;;;;;4.82;1.30;;;;;;;-148.88;75.13;-17125.47;4978024;28;20034;-89
2023/08/21 09:45:55;;;;;;;5.20;1.30;;;;;;;-148.88;77.78;-17125.47;4977456;28;20387;-88
2023/08/21 09:48:27;;;;;;;5.13;1.33;;;;;;;-148.88;77.66;-17125.47;4977378;28;20022;-88
2023/08/21 09:50:53;;;;;;;4.55;1.33;;;;;;;-148.88;74.98;-17125.47;4978019;28;20391;-89
2023/08/21 09:53:21;;;;;;;4.45;1.40;;;;;;;-148.88;73.57;-17125.47;4977380;28;20482;-87
2023/08/21 09:55:47;;;;;;;7.22;1.42;;;;;;;-148.88;73.02;-17125.47;4977792;28;20379;-88
2023/08/21 09:58:13;;;;;;;3.85;1.20;;;;;;;-148.88;66.13;-17125.47;4978795;28;20027;-87
2023/08/21 10:00:41;;;;;;;4.70;1.38;;;;;;;-148.88;71.38;-17125.47;4977546;28;20035;-87
2023/08/21 10:03:08;;;;;;;4.15;1.20;;;;;;;-148.88;67.91;-17125.47;4976895;28;20022;-89
2023/08/21 10:05:35;;;;;;;6.43;1.27;;;;;;;-148.88;70.16;-17125.47;4977009;28;20486;-88
2023/08/21 10:08:04;;;;;;;4.22;1.10;;;;;;;-148.88;69.44;-17125.47;4976956;28;20023;-89
2023/08/21 10:11:00;;;;;;;4.63;1.30;;;;;;;-148.88;72.08;-17125.47;4977194;28;20031;-86
2023/08/21 10:13:27;;;;;;;5.25;1.20;;;;;;;-148.88;72.59;-17125.47;4978377;28;20094;-87
2023/08/21 10:16:17;;;;;;;4.57;1.40;;;;;;;-148.88;74.40;-17125.47;4977289;28;20041;-87
2023/08/21 10:18:44;;;;;;;4.38;1.33;;;;;;;-148.88;76.12;-17125.47;4978120;28;20039;-86
2023/08/21 10:21:18;;;;;;;5.60;1.42;;;;;;;-148.88;75.06;-17125.47;4976985;28;20027;-88
2023/08/21 10:24:00;;;;;;;3.45;1.30;;;;;;;-148.88;73.61;-17125.47;4977720;28;20027;-87
2023/08/21 10:26:26;;;;;;;5.57;1.40;;;;;;;-148.88;79.56;-17125.47;4984746;28;20026;-88
2023/08/21 10:29:01;;;;;;;10.38;1.95;;;;;;;-148.88;74.61;-17125.47;4985641;28;20027;-88
2023/08/21 10:31:27;;;;;;;5.78;1.40;;;;;;;-148.88;71.73;-17125.47;4982519;28;20027;-87
2023/08/21 10:33:53;;;;;;;7.82;1.73;;;;;;;-148.88;73.35;-17125.47;4977004;28;20034;-88
2023/08/21 10:36:40;;;;;;;11.93;1.73;;;;;;;-148.88;71.93;-17125.47;4977025;28;20370;-87
2023/08/21 10:39:20;;;;;;;3.67;1.33;;;;;;;-148.88;68.85;-17125.47;4977783;28;20038;-88
2023/08/21 10:42:09;;;;;;;6.60;1.55;;;;;;;-148.88;68.89;-17125.47;4976324;28;20078;-87
2023/08/21 10:44:57;;;;;;;4.95;1.50;;;;;;;-148.88;68.38;-17125.47;4976639;28;20500;-88
2023/08/21 10:47:26;;;;;;;5.18;1.40;;;;;;;-148.88;69.64;-17125.47;4976169;28;20035;-89
2023/08/21 10:49:56;;;;;;;5.00;1.40;;;;;;;-148.88;70.91;-17125.47;4976600;28;20099;-90
2023/08/21 10:52:26;;;;;;;10.93;1.85;;;;;;;-148.88;68.24;-17125.47;4977824;28;20106;-87
2023/08/21 10:54:54;;;;;;;3.88;1.38;;;;;;;-148.88;64.45;-17125.47;4976635;28;20482;-89
2023/08/21 10:57:20;;;;;;;6.93;1.58;;;;;;;-148.88;66.71;-17125.47;4976890;28;20031;-89
2023/08/21 10:59:56;;;;;;;10.57;1.80;;;;;;;-148.88;67.10;-17125.47;4977001;28;20054;-89
2023/08/21 11:02:23;;;;;;;5.45;1.67;;;;;;;-148.88;64.61;-17125.47;4976615;28;20030;-90